createdAt,value
2022-11-09T00:00:47.888Z,4.47
2022-11-09T00:03:14.350Z,4.20
2022-11-09T00:05:41.035Z,4.57
2022-11-09T00:08:08.146Z,4.35
2022-11-09T00:10:35.073Z,4.30
2022-11-09T00:13:01.841Z,4.13
2022-11-09T00:15:28.462Z,3.78
2022-11-09T00:17:55.052Z,4.00
2022-11-09T00:20:21.519Z,4.13
2022-11-09T00:22:48.933Z,4.25
2022-11-09T00:25:15.455Z,3.65
2022-11-09T00:27:41.911Z,3.83
2022-11-09T00:30:10.496Z,3.65
2022-11-09T00:32:36.929Z,3.80
2022-11-09T00:35:03.590Z,3.95
2022-11-09T00:37:30.340Z,3.75
2022-11-09T00:39:56.816Z,3.72
2022-11-09T00:42:23.243Z,3.88
2022-11-09T00:44:49.676Z,3.38
2022-11-09T00:47:16.088Z,3.45
2022-11-09T00:49:42.516Z,3.70
2022-11-09T00:52:08.931Z,3.80
2022-11-09T00:54:35.462Z,4.03
2022-11-09T00:57:01.914Z,3.78
2022-11-09T00:59:28.476Z,3.97
2022-11-09T01:01:54.917Z,3.40
2022-11-09T01:04:21.378Z,3.60
2022-11-09T01:06:47.897Z,3.50
2022-11-09T01:09:14.359Z,3.97
2022-11-09T01:11:40.802Z,3.38
2022-11-09T01:14:07.209Z,3.70
2022-11-09T01:16:33.635Z,3.17
2022-11-09T01:19:00.159Z,3.47
2022-11-09T01:21:27.217Z,3.50
2022-11-09T01:23:54.479Z,3.63
2022-11-09T01:26:21.325Z,3.28
2022-11-09T01:28:47.735Z,3.70
2022-11-09T01:31:15.093Z,3.42
2022-11-09T01:33:41.665Z,3.28
2022-11-09T01:36:18.689Z,3.60
2022-11-09T01:38:45.159Z,3.90
2022-11-09T01:41:15.910Z,3.75
2022-11-09T01:43:42.555Z,3.78
2022-11-09T01:46:14.299Z,3.67
2022-11-09T01:48:46.651Z,3.70
2022-11-09T01:51:31.884Z,3.50
2022-11-09T01:54:03.575Z,3.78
2022-11-09T01:56:30.222Z,3.55
2022-11-09T01:59:01.573Z,3.60
2022-11-09T02:01:28.099Z,3.50
2022-11-09T02:03:59.597Z,3.50
2022-11-09T02:06:26.958Z,3.67
2022-11-09T02:08:55.196Z,3.20
2022-11-09T02:11:22.142Z,3.75
2022-11-09T02:13:51.580Z,3.60
2022-11-09T02:16:18.621Z,3.38
2022-11-09T02:18:49.052Z,3.63
2022-11-09T02:21:15.487Z,3.38
2022-11-09T02:23:41.954Z,3.83
2022-11-09T02:26:13.557Z,4.00
2022-11-09T02:28:40.642Z,3.42
2022-11-09T02:31:08.602Z,3.33
2022-11-09T02:33:53.891Z,3.60
2022-11-09T02:36:20.647Z,3.63
2022-11-09T02:38:47.121Z,3.58
2022-11-09T02:41:13.660Z,3.47
2022-11-09T02:43:40.552Z,3.70
2022-11-09T02:46:07.006Z,3.95
2022-11-09T02:48:33.491Z,3.83
2022-11-09T02:50:59.973Z,3.65
2022-11-09T02:53:26.411Z,3.78
2022-11-09T02:55:52.926Z,3.85
2022-11-09T02:58:19.349Z,3.90
2022-11-09T03:00:45.821Z,4.10
2022-11-09T03:03:12.474Z,3.75
2022-11-09T03:05:38.964Z,3.90
2022-11-09T03:08:05.429Z,3.92
2022-11-09T03:10:31.928Z,3.80
2022-11-09T03:12:58.369Z,3.83
2022-11-09T03:15:24.786Z,3.60
2022-11-09T03:17:51.324Z,3.78
2022-11-09T03:20:17.755Z,4.10
2022-11-09T03:22:44.263Z,3.83
2022-11-09T03:25:10.776Z,3.40
2022-11-09T03:27:37.215Z,3.80
2022-11-09T03:30:03.930Z,4.13
2022-11-09T03:32:30.371Z,4.15
2022-11-09T03:34:56.968Z,3.65
2022-11-09T03:37:23.487Z,3.75
2022-11-09T03:39:50.019Z,4.03
2022-11-09T03:42:16.435Z,3.90
2022-11-09T03:44:42.874Z,3.80
2022-11-09T03:47:09.372Z,3.47
2022-11-09T03:49:35.863Z,3.50
2022-11-09T03:52:02.798Z,3.70
2022-11-09T03:54:29.256Z,3.88
2022-11-09T03:56:55.732Z,4.10
2022-11-09T03:59:22.157Z,3.67
2022-11-09T04:01:48.762Z,4.07
2022-11-09T04:04:15.238Z,3.42
2022-11-09T04:06:41.718Z,4.07
2022-11-09T04:09:09.485Z,3.90
2022-11-09T04:11:35.982Z,3.90
2022-11-09T04:14:02.413Z,3.80
2022-11-09T04:16:28.855Z,4.53
2022-11-09T04:18:55.275Z,4.10
2022-11-09T04:21:24.003Z,3.80
2022-11-09T04:23:50.691Z,3.83
2022-11-09T04:26:17.282Z,3.85
2022-11-09T04:28:43.728Z,3.75
2022-11-09T04:31:10.239Z,4.00
2022-11-09T04:33:36.679Z,3.85
2022-11-09T04:36:06.241Z,3.92
2022-11-09T04:38:33.087Z,4.18
2022-11-09T04:41:05.869Z,3.90
2022-11-09T04:43:32.381Z,4.22
2022-11-09T04:46:02.611Z,3.70
2022-11-09T04:48:29.615Z,3.97
2022-11-09T04:51:00.532Z,4.18
2022-11-09T04:53:27.002Z,3.90
2022-11-09T04:55:53.502Z,4.22
2022-11-09T04:58:23.858Z,4.00
2022-11-09T05:00:51.696Z,4.07
2022-11-09T05:03:18.530Z,4.00
2022-11-09T05:05:48.342Z,4.10
2022-11-09T05:08:15.197Z,3.90
2022-11-09T05:10:41.633Z,4.00
2022-11-09T05:13:09.957Z,4.13
2022-11-09T05:15:36.668Z,3.72
2022-11-09T05:18:03.855Z,3.75
2022-11-09T05:20:30.853Z,3.67
2022-11-09T05:23:16.502Z,3.95
2022-11-09T05:25:42.917Z,4.10
2022-11-09T05:28:09.854Z,3.72
2022-11-09T05:30:36.398Z,4.25
2022-11-09T05:33:02.841Z,4.03
2022-11-09T05:35:29.474Z,3.88
2022-11-09T05:37:55.926Z,3.60
2022-11-09T05:40:22.417Z,3.88
2022-11-09T05:42:48.866Z,3.92
2022-11-09T05:48:03.838Z,4.10
2022-11-09T05:50:30.308Z,4.13
2022-11-09T05:52:58.655Z,4.30
2022-11-09T05:55:25.449Z,4.03
2022-11-09T05:57:51.924Z,3.85
2022-11-09T06:00:18.528Z,4.18
2022-11-09T06:02:44.953Z,4.03
2022-11-09T06:05:11.530Z,3.65
2022-11-09T06:07:37.992Z,3.95
2022-11-09T06:10:04.989Z,3.97
2022-11-09T06:12:31.784Z,4.05
2022-11-09T06:14:58.255Z,4.57
2022-11-09T06:17:24.700Z,3.88
2022-11-09T06:19:51.238Z,4.03
2022-11-09T06:22:17.782Z,3.97
2022-11-09T06:24:44.273Z,3.97
2022-11-09T06:27:10.735Z,4.35
2022-11-09T06:29:37.139Z,4.18
2022-11-09T06:32:03.614Z,3.80
2022-11-09T06:34:30.734Z,4.15
2022-11-09T06:36:57.202Z,4.40
2022-11-09T06:39:23.694Z,4.15
2022-11-09T06:41:50.119Z,4.45
2022-11-09T06:44:16.621Z,4.40
2022-11-09T06:46:43.067Z,4.20
2022-11-09T06:49:09.578Z,3.92
2022-11-09T06:51:36.015Z,3.97
2022-11-09T06:54:02.465Z,3.92
2022-11-09T06:56:29.059Z,4.43
2022-11-09T06:58:55.579Z,4.20
2022-11-09T07:01:25.603Z,4.07
2022-11-09T07:03:52.131Z,4.55
2022-11-09T07:06:18.578Z,3.88
2022-11-09T07:08:45.008Z,4.47
2022-11-09T07:11:12.682Z,4.50
2022-11-09T07:13:39.821Z,4.25
2022-11-09T07:16:06.784Z,4.32
2022-11-09T07:18:33.298Z,4.50
2022-11-09T07:20:59.774Z,4.38
2022-11-09T07:23:26.305Z,4.53
2022-11-09T07:25:52.892Z,4.40
2022-11-09T07:28:19.346Z,4.22
2022-11-09T07:30:45.858Z,4.38
2022-11-09T07:33:18.129Z,4.43
2022-11-09T07:38:11.058Z,4.78
2022-11-09T07:40:37.517Z,4.60
2022-11-09T07:43:04.986Z,4.60
2022-11-09T07:45:31.775Z,4.40
2022-11-09T07:47:59.022Z,4.57
2022-11-09T07:50:25.722Z,4.80
2022-11-09T07:52:52.308Z,4.63
2022-11-09T07:55:18.798Z,3.85
2022-11-09T07:57:47.144Z,4.35
2022-11-09T08:00:14.731Z,4.35
2022-11-09T08:02:41.206Z,4.00
2022-11-09T08:05:07.673Z,4.45
2022-11-09T08:07:34.389Z,4.63
2022-11-09T08:10:00.886Z,4.47
2022-11-09T08:12:27.788Z,4.43
2022-11-09T08:14:54.686Z,4.35
2022-11-09T08:17:21.237Z,4.20
2022-11-09T08:19:47.625Z,4.20
2022-11-09T08:22:14.019Z,4.40
2022-11-09T08:24:40.432Z,4.15
2022-11-09T08:27:06.996Z,4.07
2022-11-09T08:29:33.375Z,4.35
2022-11-09T08:31:59.804Z,4.45
2022-11-09T08:34:26.345Z,4.57
2022-11-09T08:36:52.756Z,4.07
2022-11-09T08:39:20.006Z,4.50
2022-11-09T08:41:46.401Z,3.90
2022-11-09T08:44:12.871Z,4.30
2022-11-09T08:46:41.385Z,4.47
2022-11-09T08:49:08.136Z,4.40
2022-11-09T08:51:34.667Z,3.97
2022-11-09T08:54:01.171Z,4.05
2022-11-09T08:56:27.668Z,4.20
2022-11-09T08:58:54.075Z,4.18
2022-11-09T09:01:20.716Z,4.07
2022-11-09T09:03:47.180Z,4.18
2022-11-09T09:06:13.595Z,4.50
2022-11-09T09:08:40.035Z,4.00
2022-11-09T09:11:06.812Z,4.22
2022-11-09T09:13:33.541Z,4.15
2022-11-09T09:16:08.944Z,4.15
2022-11-09T09:18:35.374Z,4.05
2022-11-09T09:21:04.923Z,4.35
2022-11-09T09:23:31.324Z,3.92
2022-11-09T09:25:58.816Z,4.18
2022-11-09T09:28:25.348Z,4.43
2022-11-09T09:30:52.394Z,3.90
2022-11-09T09:33:18.849Z,3.67
2022-11-09T09:35:45.417Z,3.80
2022-11-09T09:38:11.857Z,3.97
2022-11-09T09:40:42.195Z,4.00
2022-11-09T09:43:26.074Z,4.20
2022-11-09T09:45:53.383Z,4.00
2022-11-09T09:48:20.044Z,4.10
2022-11-09T09:50:49.113Z,4.07
2022-11-09T09:53:27.705Z,3.83
2022-11-09T09:55:56.724Z,4.03
2022-11-09T09:58:23.295Z,3.78
2022-11-09T10:00:52.244Z,3.90
2022-11-09T10:03:19.925Z,4.03
2022-11-09T10:05:46.329Z,4.00
2022-11-09T10:08:45.471Z,4.05
2022-11-09T10:11:41.104Z,3.97
2022-11-09T10:14:07.513Z,4.35
2022-11-09T10:16:39.710Z,3.80
2022-11-09T10:19:22.998Z,3.70
2022-11-09T10:21:52.239Z,3.70
2022-11-09T10:24:21.640Z,4.03
2022-11-09T10:26:50.187Z,3.88
2022-11-09T10:29:17.342Z,4.38
2022-11-09T10:31:45.644Z,3.97
2022-11-09T10:34:33.699Z,3.72
2022-11-09T10:37:04.531Z,4.30
2022-11-09T10:39:35.831Z,3.92
2022-11-09T10:42:02.277Z,4.63
2022-11-09T10:44:28.789Z,4.40
2022-11-09T10:47:05.877Z,4.43
2022-11-09T10:49:33.909Z,4.72
2022-11-09T10:52:00.844Z,5.38
2022-11-09T10:54:33.755Z,5.28
2022-11-09T10:57:06.943Z,4.55
2022-11-09T10:59:52.125Z,5.50
2022-11-09T11:02:24.751Z,5.43
2022-11-09T11:05:12.740Z,5.40
2022-11-09T11:07:39.226Z,6.05
2022-11-09T11:10:11.907Z,6.40
2022-11-09T11:12:38.456Z,6.45
2022-11-09T11:15:18.907Z,6.20
2022-11-09T11:17:45.410Z,6.35
2022-11-09T11:20:25.755Z,5.68
2022-11-09T11:23:05.690Z,5.50
2022-11-09T11:25:32.249Z,6.07
2022-11-09T11:28:04.269Z,5.95
2022-11-09T11:30:36.252Z,6.30
2022-11-09T11:33:06.233Z,5.88
2022-11-09T11:35:40.830Z,6.10
2022-11-09T11:38:16.220Z,5.75
2022-11-09T11:40:46.243Z,6.13
2022-11-09T11:43:12.622Z,6.13
2022-11-09T11:45:43.057Z,6.93
2022-11-09T11:48:28.418Z,6.60
2022-11-09T11:51:00.797Z,6.30
2022-11-09T11:55:59.624Z,6.35
2022-11-09T11:58:42.257Z,5.80
2022-11-09T12:01:11.751Z,5.80
2022-11-09T12:03:52.522Z,7.45
2022-11-09T12:06:31.301Z,6.18
2022-11-09T12:09:03.071Z,6.50
2022-11-09T12:11:48.368Z,5.82
2022-11-09T12:14:23.863Z,6.65
2022-11-09T12:17:09.018Z,7.00
2022-11-09T12:19:54.260Z,6.68
2022-11-09T12:22:29.977Z,6.18
2022-11-09T12:24:56.370Z,5.60
2022-11-09T12:27:32.867Z,6.57
2022-11-09T12:30:14.751Z,6.43
2022-11-09T12:32:41.106Z,6.20
2022-11-09T12:35:25.637Z,6.78
2022-11-09T12:38:10.835Z,6.97
2022-11-09T12:40:39.460Z,6.18
2022-11-09T12:43:15.682Z,5.97
2022-11-09T12:45:43.765Z,6.35
2022-11-09T12:48:31.298Z,6.72
2022-11-09T12:51:01.691Z,5.50
2022-11-09T12:53:33.908Z,6.30
2022-11-09T12:56:05.142Z,6.35
2022-11-09T12:58:35.649Z,6.00
2022-11-09T13:01:08.274Z,5.85
2022-11-09T13:03:36.604Z,5.72
2022-11-09T13:06:20.418Z,6.32
2022-11-09T13:09:01.405Z,5.45
2022-11-09T13:11:38.924Z,5.90
2022-11-09T13:14:26.120Z,5.88
2022-11-09T13:16:56.772Z,5.70
2022-11-09T13:19:35.264Z,5.93
2022-11-09T13:22:02.693Z,5.45
2022-11-09T13:24:32.449Z,5.55
2022-11-09T13:26:59.922Z,5.88
2022-11-09T13:29:41.784Z,5.80
2022-11-09T13:32:11.317Z,6.22
2022-11-09T13:35:07.201Z,6.10
2022-11-09T13:37:36.671Z,5.90
2022-11-09T13:40:23.340Z,5.95
2022-11-09T13:42:56.575Z,5.55
2022-11-09T13:45:32.981Z,6.13
2022-11-09T13:47:59.513Z,6.32
2022-11-09T13:50:27.695Z,6.10
2022-11-09T13:52:55.626Z,5.97
2022-11-09T13:55:31.585Z,5.90
2022-11-09T13:58:13.818Z,5.65
2022-11-09T14:00:45.017Z,6.00
2022-11-09T14:03:19.345Z,6.18
2022-11-09T14:05:46.161Z,5.82
2022-11-09T14:08:19.435Z,5.80
2022-11-09T14:11:06.780Z,6.57
2022-11-09T14:13:33.206Z,6.40
2022-11-09T14:16:22.251Z,5.88
2022-11-09T14:18:56.674Z,6.25
2022-11-09T14:21:38.583Z,6.10
2022-11-09T14:24:32.725Z,7.00
2022-11-09T14:27:00.026Z,6.43
2022-11-09T14:29:26.828Z,6.30
2022-11-09T14:31:53.253Z,6.65
2022-11-09T14:34:20.771Z,6.60
2022-11-09T14:36:47.223Z,6.65
2022-11-09T14:39:34.299Z,7.00
2022-11-09T14:42:00.901Z,6.90
2022-11-09T14:44:28.702Z,7.45
2022-11-09T14:46:56.548Z,7.07
2022-11-09T14:49:24.477Z,6.95
2022-11-09T14:51:51.087Z,8.35
2022-11-09T14:54:19.467Z,6.80
2022-11-09T14:56:46.333Z,7.28
2022-11-09T14:59:17.309Z,7.30
2022-11-09T15:02:19.296Z,7.53
2022-11-09T15:04:59.096Z,7.67
2022-11-09T15:07:27.431Z,7.85
2022-11-09T15:09:56.560Z,7.90
2022-11-09T15:12:23.584Z,8.00
2022-11-09T15:14:52.889Z,8.20
2022-11-09T15:17:25.081Z,8.15
2022-11-09T15:19:53.239Z,8.07
2022-11-09T15:22:38.531Z,8.05
2022-11-09T15:25:23.437Z,8.02
2022-11-09T15:28:05.160Z,7.82
2022-11-09T15:30:33.673Z,8.35
2022-11-09T15:33:00.780Z,8.23
2022-11-09T15:35:27.654Z,8.27
2022-11-09T15:37:54.912Z,8.63
2022-11-09T15:40:23.196Z,9.57
2022-11-09T15:42:49.618Z,8.63
2022-11-09T15:45:17.536Z,9.05
2022-11-09T15:47:51.570Z,9.38
2022-11-09T15:50:20.473Z,8.80
2022-11-09T15:52:47.015Z,8.40
2022-11-09T15:55:14.214Z,9.30
2022-11-09T15:57:40.767Z,9.10
2022-11-09T16:00:12.737Z,8.48
2022-11-09T16:02:40.929Z,8.32
2022-11-09T16:05:07.611Z,8.68
2022-11-09T16:07:34.084Z,8.38
2022-11-09T16:10:00.660Z,8.57
2022-11-09T16:12:27.108Z,8.40
2022-11-09T16:14:53.656Z,8.27
2022-11-09T16:17:20.230Z,7.88
2022-11-09T16:19:46.697Z,8.75
2022-11-09T16:22:13.211Z,8.15
2022-11-09T16:24:40.654Z,7.63
2022-11-09T16:27:16.924Z,7.32
2022-11-09T16:29:48.784Z,7.65
2022-11-09T16:32:15.196Z,7.55
2022-11-09T16:34:41.634Z,7.85
2022-11-09T16:37:08.101Z,7.40
2022-11-09T16:39:35.322Z,8.10
2022-11-09T16:42:11.730Z,8.20
2022-11-09T16:44:39.668Z,8.82
2022-11-09T16:47:07.703Z,8.00
2022-11-09T16:49:34.114Z,8.63
2022-11-09T16:52:00.544Z,8.82
2022-11-09T16:54:27.032Z,9.40
2022-11-09T16:56:54.911Z,9.32
2022-11-09T16:59:22.171Z,9.73
2022-11-09T17:01:56.249Z,8.80
2022-11-09T17:04:22.920Z,8.43
2022-11-09T17:06:49.916Z,9.20
2022-11-09T17:09:16.756Z,9.93
2022-11-09T17:11:43.421Z,8.27
2022-11-09T17:14:09.864Z,9.32
2022-11-09T17:16:36.586Z,8.63
2022-11-09T17:19:03.277Z,8.52
2022-11-09T17:21:30.019Z,8.80
2022-11-09T17:23:57.126Z,8.75
2022-11-09T17:26:25.491Z,8.25
2022-11-09T17:28:53.539Z,8.98
2022-11-09T17:31:21.379Z,8.57
2022-11-09T17:33:47.918Z,8.38
2022-11-09T17:36:15.364Z,8.77
2022-11-09T17:38:41.918Z,8.77
2022-11-09T17:41:10.227Z,8.88
2022-11-09T17:43:38.207Z,9.02
2022-11-09T17:46:08.866Z,8.40
2022-11-09T17:48:36.043Z,8.40
2022-11-09T17:51:03.136Z,9.27
2022-11-09T17:53:29.661Z,8.40
2022-11-09T17:55:56.425Z,8.95
2022-11-09T17:58:23.521Z,9.23
2022-11-09T18:00:50.343Z,8.52
2022-11-09T18:03:16.913Z,8.93
2022-11-09T18:05:43.902Z,9.23
2022-11-09T18:08:11.011Z,9.18
2022-11-09T18:10:38.856Z,8.95
2022-11-09T18:13:05.843Z,8.65
2022-11-09T18:15:32.598Z,8.60
2022-11-09T18:17:59.332Z,8.70
2022-11-09T18:20:25.890Z,8.50
2022-11-09T18:22:52.974Z,8.40
2022-11-09T18:25:19.690Z,8.65
2022-11-09T18:27:47.447Z,8.40
2022-11-09T18:30:14.639Z,8.77
2022-11-09T18:32:41.143Z,8.60
2022-11-09T18:35:07.633Z,8.43
2022-11-09T18:37:37.399Z,8.10
2022-11-09T18:40:04.659Z,8.20
2022-11-09T18:42:31.216Z,7.65
2022-11-09T18:44:57.630Z,8.20
2022-11-09T18:47:25.477Z,8.20
2022-11-09T18:49:52.528Z,7.93
2022-11-09T18:52:19.012Z,8.43
2022-11-09T18:54:45.560Z,8.15
2022-11-09T18:57:16.004Z,8.98
2022-11-09T18:59:45.082Z,8.82
2022-11-09T19:02:12.443Z,8.32
2022-11-09T19:04:38.943Z,9.00
2022-11-09T19:07:05.728Z,8.85
2022-11-09T19:09:35.830Z,8.73
2022-11-09T19:12:03.322Z,9.07
2022-11-09T19:14:30.105Z,9.80
2022-11-09T19:16:56.607Z,9.35
2022-11-09T19:19:24.652Z,9.88
2022-11-09T19:21:52.639Z,10.52
2022-11-09T19:24:20.134Z,10.45
2022-11-09T19:26:46.982Z,10.00
2022-11-09T19:29:14.417Z,10.95
2022-11-09T19:31:44.092Z,11.48
2022-11-09T19:34:11.435Z,12.00
2022-11-09T19:36:38.505Z,11.38
2022-11-09T19:39:05.244Z,11.40
2022-11-09T19:41:31.810Z,12.30
2022-11-09T19:43:59.010Z,12.02
2022-11-09T19:46:26.160Z,12.57
2022-11-09T19:48:52.826Z,12.40
2022-11-09T19:51:19.302Z,12.35
2022-11-09T19:53:50.293Z,12.93
2022-11-09T19:56:16.876Z,12.50
2022-11-09T19:58:43.382Z,12.65
2022-11-09T20:01:11.307Z,12.75
2022-11-09T20:03:38.308Z,11.98
2022-11-09T20:06:05.901Z,12.15
2022-11-09T20:08:33.224Z,12.82
2022-11-09T20:11:09.825Z,12.93
2022-11-09T20:13:39.732Z,13.20
2022-11-09T20:16:07.590Z,13.07
2022-11-09T20:18:35.374Z,12.20
2022-11-09T20:21:02.240Z,12.20
2022-11-09T20:23:28.636Z,12.85
2022-11-09T20:26:04.733Z,12.65
2022-11-09T20:28:31.249Z,12.77
2022-11-09T20:30:57.858Z,12.13
2022-11-09T20:33:24.691Z,12.50
2022-11-09T20:35:51.916Z,12.10
2022-11-09T20:38:18.589Z,12.27
2022-11-09T20:40:52.698Z,13.15
2022-11-09T20:43:19.106Z,12.40
2022-11-09T20:45:45.519Z,11.93
2022-11-09T20:48:31.353Z,11.73
2022-11-09T20:51:05.533Z,11.85
2022-11-09T20:53:32.284Z,11.98
2022-11-09T20:55:58.900Z,12.23
2022-11-09T20:58:27.369Z,12.40
2022-11-09T21:01:01.167Z,12.15
2022-11-09T21:03:27.619Z,11.98
2022-11-09T21:06:00.983Z,12.57
2022-11-09T21:08:27.824Z,11.82
2022-11-09T21:10:54.591Z,10.77
2022-11-09T21:13:21.524Z,11.43
2022-11-09T21:15:47.988Z,11.18
2022-11-09T21:18:14.508Z,11.00
2022-11-09T21:20:41.122Z,10.73
2022-11-09T21:23:14.453Z,10.30
2022-11-09T21:26:00.551Z,11.27
2022-11-09T21:28:45.903Z,11.48
2022-11-09T21:31:12.964Z,11.90
2022-11-09T21:33:39.634Z,10.75
2022-11-09T21:36:07.065Z,11.02
2022-11-09T21:38:33.703Z,10.68
2022-11-09T21:41:05.368Z,11.05
2022-11-09T21:43:34.169Z,11.25
2022-11-09T21:46:00.588Z,10.60
2022-11-09T21:48:27.265Z,11.38
2022-11-09T21:50:57.105Z,10.73
2022-11-09T21:53:23.649Z,10.38
2022-11-09T21:55:50.221Z,11.40
2022-11-09T21:58:16.739Z,10.40
2022-11-09T22:00:43.146Z,10.68
2022-11-09T22:03:09.642Z,11.43
2022-11-09T22:05:36.048Z,11.13
2022-11-09T22:08:02.455Z,10.73
2022-11-09T22:10:28.945Z,10.77
2022-11-09T22:13:14.045Z,11.23
2022-11-09T22:15:58.932Z,11.02
2022-11-09T22:18:47.281Z,10.32
2022-11-09T22:21:16.111Z,10.73
2022-11-09T22:23:42.549Z,11.65
2022-11-09T22:26:09.109Z,10.52
2022-11-09T22:28:35.596Z,10.52
2022-11-09T22:31:05.586Z,10.93
2022-11-09T22:33:32.683Z,11.02
2022-11-09T22:36:00.692Z,10.32
2022-11-09T22:38:27.167Z,10.55
2022-11-09T22:40:53.697Z,10.60
2022-11-09T22:43:20.563Z,10.40
2022-11-09T22:45:47.302Z,10.40
2022-11-09T22:48:13.743Z,10.75
2022-11-09T22:50:40.196Z,11.38
2022-11-09T22:53:06.632Z,10.75
2022-11-09T22:55:33.061Z,10.25
2022-11-09T22:57:59.746Z,10.65
2022-11-09T23:00:26.225Z,10.70
2022-11-09T23:02:56.263Z,10.40
2022-11-09T23:05:22.686Z,10.88
2022-11-09T23:07:49.149Z,9.77
2022-11-09T23:10:15.731Z,10.20
2022-11-09T23:12:42.158Z,10.95
2022-11-09T23:15:13.231Z,9.88
2022-11-09T23:17:58.086Z,11.10
2022-11-09T23:20:24.588Z,10.10
2022-11-09T23:22:51.097Z,10.95
2022-11-09T23:25:36.063Z,9.40
2022-11-09T23:28:02.473Z,9.52
2022-11-09T23:30:28.970Z,10.20
2022-11-09T23:32:55.498Z,10.00
2022-11-09T23:35:21.910Z,10.07
2022-11-09T23:37:48.353Z,10.02
2022-11-09T23:40:14.839Z,9.77
2022-11-09T23:42:41.269Z,10.13
2022-11-09T23:45:07.878Z,9.50
2022-11-09T23:47:34.354Z,10.50
2022-11-09T23:50:00.789Z,9.82
2022-11-09T23:52:27.244Z,9.73
2022-11-09T23:54:53.662Z,9.93
2022-11-09T23:57:20.219Z,9.35
2022-11-09T23:59:46.632Z,10.25
